Sandersdale, Massachusetts
Current Conditions -  °F | °C
As of 1:54 PM on Friday 21 Nov 2014 (Local Time) from KORH Reporting Station
Broken Clouds Broken Clouds  
Wind Chill: 15°   Ceiling: 5000
Heat Index: 28°   Visibility: 10mi
Dew Point:   Wind: 20mph
Humidity: 43%   Direction: 280°W
Pressure: 30.14"   Gusts: 33mph
Location:  42.0598°N, 72.0339°W
Report Text: KORH 211854Z 28017G29KT 10SM BKN050 M02/M13 A3014 RMK AO2 PK WND 31029/1847 SLP221 T10221133
Loading
Personal Weather Stations






























Interactive Weather Map New forecast layout! Learn more

10-Day Weather Forecast

Advertisements
Track Severe Weather on mobile